sensor_id;sensor_type;location;lat;lon;timestamp;temperature;humidity
42095;DHT22;27753;55.724;37.612;2023-04-09T00:01:23;8.60;67.40
42095;DHT22;27753;55.724;37.612;2023-04-09T00:03:48;8.60;67.30
42095;DHT22;27753;55.724;37.612;2023-04-09T00:06:14;8.60;67.30
42095;DHT22;27753;55.724;37.612;2023-04-09T00:08:40;8.60;67.30
42095;DHT22;27753;55.724;37.612;2023-04-09T00:11:06;8.60;67.40
42095;DHT22;27753;55.724;37.612;2023-04-09T00:13:32;8.60;67.50
42095;DHT22;27753;55.724;37.612;2023-04-09T00:15:58;8.50;67.50
42095;DHT22;27753;55.724;37.612;2023-04-09T00:18:24;8.60;67.80
42095;DHT22;27753;55.724;37.612;2023-04-09T00:20:50;8.50;67.60
42095;DHT22;27753;55.724;37.612;2023-04-09T00:23:16;8.60;67.80
42095;DHT22;27753;55.724;37.612;2023-04-09T00:25:41;8.50;67.70
42095;DHT22;27753;55.724;37.612;2023-04-09T00:28:07;8.50;67.70
42095;DHT22;27753;55.724;37.612;2023-04-09T00:30:35;8.50;67.80
42095;DHT22;27753;55.724;37.612;2023-04-09T00:33:01;8.50;67.90
42095;DHT22;27753;55.724;37.612;2023-04-09T00:35:27;8.50;67.90
42095;DHT22;27753;55.724;37.612;2023-04-09T00:37:53;8.50;67.90
42095;DHT22;27753;55.724;37.612;2023-04-09T00:40:19;8.50;68.10
42095;DHT22;27753;55.724;37.612;2023-04-09T00:42:45;8.50;68.00
42095;DHT22;27753;55.724;37.612;2023-04-09T00:45:12;8.50;68.10
42095;DHT22;27753;55.724;37.612;2023-04-09T00:47:38;8.50;68.10
42095;DHT22;27753;55.724;37.612;2023-04-09T00:50:04;8.50;68.10
42095;DHT22;27753;55.724;37.612;2023-04-09T00:52:32;8.50;68.10
42095;DHT22;27753;55.724;37.612;2023-04-09T00:55:03;8.50;68.30
42095;DHT22;27753;55.724;37.612;2023-04-09T00:57:30;8.40;68.40
42095;DHT22;27753;55.724;37.612;2023-04-09T00:59:56;8.40;68.40
42095;DHT22;27753;55.724;37.612;2023-04-09T01:02:22;8.40;68.60
42095;DHT22;27753;55.724;37.612;2023-04-09T01:04:49;8.40;68.60
42095;DHT22;27753;55.724;37.612;2023-04-09T01:10:58;8.40;68.90
42095;DHT22;27753;55.724;37.612;2023-04-09T01:13:48;8.30;68.90
42095;DHT22;27753;55.724;37.612;2023-04-09T01:16:16;8.30;69.20
42095;DHT22;27753;55.724;37.612;2023-04-09T01:18:58;8.40;75.90
42095;DHT22;27753;55.724;37.612;2023-04-09T01:21:31;8.50;76.60
42095;DHT22;27753;55.724;37.612;2023-04-09T01:27:06;8.20;69.60
42095;DHT22;27753;55.724;37.612;2023-04-09T01:29:54;8.20;69.70
42095;DHT22;27753;55.724;37.612;2023-04-09T01:32:19;8.20;69.70
42095;DHT22;27753;55.724;37.612;2023-04-09T01:34:46;8.20;69.20
42095;DHT22;27753;55.724;37.612;2023-04-09T01:37:13;8.20;69.60
42095;DHT22;27753;55.724;37.612;2023-04-09T01:39:41;8.20;69.80
42095;DHT22;27753;55.724;37.612;2023-04-09T01:42:08;8.20;69.90
42095;DHT22;27753;55.724;37.612;2023-04-09T01:44:38;8.20;70.10
42095;DHT22;27753;55.724;37.612;2023-04-09T01:47:04;8.20;70.10
42095;DHT22;27753;55.724;37.612;2023-04-09T01:49:32;8.20;70.10
42095;DHT22;27753;55.724;37.612;2023-04-09T01:51:58;8.20;70.20
42095;DHT22;27753;55.724;37.612;2023-04-09T01:54:26;8.20;70.20
42095;DHT22;27753;55.724;37.612;2023-04-09T01:56:52;8.20;70.20
42095;DHT22;27753;55.724;37.612;2023-04-09T01:59:18;8.20;70.20
42095;DHT22;27753;55.724;37.612;2023-04-09T02:01:52;8.20;70.30
42095;DHT22;27753;55.724;37.612;2023-04-09T02:04:32;8.20;70.40
42095;DHT22;27753;55.724;37.612;2023-04-09T02:09:55;8.20;70.70
42095;DHT22;27753;55.724;37.612;2023-04-09T02:12:23;8.20;70.50
42095;DHT22;27753;55.724;37.612;2023-04-09T02:14:50;8.20;70.60
42095;DHT22;27753;55.724;37.612;2023-04-09T02:17:17;8.10;70.80
42095;DHT22;27753;55.724;37.612;2023-04-09T02:19:45;8.10;70.90
42095;DHT22;27753;55.724;37.612;2023-04-09T02:22:13;8.10;70.90
42095;DHT22;27753;55.724;37.612;2023-04-09T02:24:39;8.00;71.00
42095;DHT22;27753;55.724;37.612;2023-04-09T02:27:06;8.00;71.10
42095;DHT22;27753;55.724;37.612;2023-04-09T02:29:33;8.00;71.30
42095;DHT22;27753;55.724;37.612;2023-04-09T02:31:59;8.00;71.50
42095;DHT22;27753;55.724;37.612;2023-04-09T02:34:26;8.00;71.50
42095;DHT22;27753;55.724;37.612;2023-04-09T02:36:52;8.00;71.60
42095;DHT22;27753;55.724;37.612;2023-04-09T02:39:18;8.00;71.70
42095;DHT22;27753;55.724;37.612;2023-04-09T02:41:44;7.90;71.70
42095;DHT22;27753;55.724;37.612;2023-04-09T02:44:10;8.00;71.80
42095;DHT22;27753;55.724;37.612;2023-04-09T02:46:37;8.00;71.80
42095;DHT22;27753;55.724;37.612;2023-04-09T02:49:03;8.00;72.00
42095;DHT22;27753;55.724;37.612;2023-04-09T02:51:28;7.90;71.90
42095;DHT22;27753;55.724;37.612;2023-04-09T02:53:54;7.90;72.10
42095;DHT22;27753;55.724;37.612;2023-04-09T02:56:21;8.00;72.30
42095;DHT22;27753;55.724;37.612;2023-04-09T02:58:49;7.90;72.30
42095;DHT22;27753;55.724;37.612;2023-04-09T03:01:18;7.90;72.30
42095;DHT22;27753;55.724;37.612;2023-04-09T03:03:47;7.90;72.20
42095;DHT22;27753;55.724;37.612;2023-04-09T03:06:13;8.00;72.20
42095;DHT22;27753;55.724;37.612;2023-04-09T03:08:38;8.00;72.10
42095;DHT22;27753;55.724;37.612;2023-04-09T03:11:05;8.10;72.00
42095;DHT22;27753;55.724;37.612;2023-04-09T03:13:31;8.10;71.90
42095;DHT22;27753;55.724;37.612;2023-04-09T03:15:56;8.10;71.90
42095;DHT22;27753;55.724;37.612;2023-04-09T03:18:22;8.10;71.90
42095;DHT22;27753;55.724;37.612;2023-04-09T03:20:48;8.20;71.80
42095;DHT22;27753;55.724;37.612;2023-04-09T03:23:14;8.20;71.70
42095;DHT22;27753;55.724;37.612;2023-04-09T03:25:40;8.20;71.70
42095;DHT22;27753;55.724;37.612;2023-04-09T03:28:07;8.20;71.70
42095;DHT22;27753;55.724;37.612;2023-04-09T03:30:32;8.20;71.80
42095;DHT22;27753;55.724;37.612;2023-04-09T03:32:59;8.20;72.50
42095;DHT22;27753;55.724;37.612;2023-04-09T03:35:25;8.10;71.90
42095;DHT22;27753;55.724;37.612;2023-04-09T03:37:51;8.00;72.10
42095;DHT22;27753;55.724;37.612;2023-04-09T03:40:17;8.00;72.30
42095;DHT22;27753;55.724;37.612;2023-04-09T03:42:44;8.00;72.40
42095;DHT22;27753;55.724;37.612;2023-04-09T03:45:10;8.10;72.40
42095;DHT22;27753;55.724;37.612;2023-04-09T03:47:37;8.00;72.40
42095;DHT22;27753;55.724;37.612;2023-04-09T03:50:04;8.00;72.40
42095;DHT22;27753;55.724;37.612;2023-04-09T03:52:30;8.00;72.50
42095;DHT22;27753;55.724;37.612;2023-04-09T03:54:55;8.10;72.70
42095;DHT22;27753;55.724;37.612;2023-04-09T03:57:21;8.00;72.70
42095;DHT22;27753;55.724;37.612;2023-04-09T03:59:47;8.00;72.70
42095;DHT22;27753;55.724;37.612;2023-04-09T04:02:13;8.10;72.80
42095;DHT22;27753;55.724;37.612;2023-04-09T04:04:39;8.10;72.80
42095;DHT22;27753;55.724;37.612;2023-04-09T04:07:05;8.10;72.70
42095;DHT22;27753;55.724;37.612;2023-04-09T04:09:32;8.10;72.70
42095;DHT22;27753;55.724;37.612;2023-04-09T04:11:59;8.20;72.70
42095;DHT22;27753;55.724;37.612;2023-04-09T04:14:25;8.20;72.60
42095;DHT22;27753;55.724;37.612;2023-04-09T04:16:51;8.20;72.50
42095;DHT22;27753;55.724;37.612;2023-04-09T04:19:17;8.30;72.50
42095;DHT22;27753;55.724;37.612;2023-04-09T04:21:44;8.40;72.40
42095;DHT22;27753;55.724;37.612;2023-04-09T04:24:10;8.50;72.20
42095;DHT22;27753;55.724;37.612;2023-04-09T04:26:36;8.50;72.00
42095;DHT22;27753;55.724;37.612;2023-04-09T04:29:02;8.50;71.90
42095;DHT22;27753;55.724;37.612;2023-04-09T04:31:28;8.60;72.00
42095;DHT22;27753;55.724;37.612;2023-04-09T04:33:53;8.80;71.70
42095;DHT22;27753;55.724;37.612;2023-04-09T04:36:19;9.10;71.30
42095;DHT22;27753;55.724;37.612;2023-04-09T04:38:45;9.20;70.50
42095;DHT22;27753;55.724;37.612;2023-04-09T04:41:11;9.30;70.20
42095;DHT22;27753;55.724;37.612;2023-04-09T04:43:37;9.50;69.80
42095;DHT22;27753;55.724;37.612;2023-04-09T04:46:03;9.50;69.30
42095;DHT22;27753;55.724;37.612;2023-04-09T04:48:30;9.50;69.30
42095;DHT22;27753;55.724;37.612;2023-04-09T04:50:58;9.60;69.10
42095;DHT22;27753;55.724;37.612;2023-04-09T04:53:24;9.70;68.80
42095;DHT22;27753;55.724;37.612;2023-04-09T04:55:50;9.60;69.30
42095;DHT22;27753;55.724;37.612;2023-04-09T04:58:16;9.60;68.70
42095;DHT22;27753;55.724;37.612;2023-04-09T05:00:43;9.80;68.80
42095;DHT22;27753;55.724;37.612;2023-04-09T05:03:09;10.10;68.20
42095;DHT22;27753;55.724;37.612;2023-04-09T05:05:35;10.30;67.50
42095;DHT22;27753;55.724;37.612;2023-04-09T05:08:01;10.50;66.60
42095;DHT22;27753;55.724;37.612;2023-04-09T05:10:26;10.60;66.20
42095;DHT22;27753;55.724;37.612;2023-04-09T05:12:52;10.60;66.30
42095;DHT22;27753;55.724;37.612;2023-04-09T05:15:18;10.90;66.00
42095;DHT22;27753;55.724;37.612;2023-04-09T05:20:11;11.60;90.20
42095;DHT22;27753;55.724;37.612;2023-04-09T05:22:38;11.60;68.60
42095;DHT22;27753;55.724;37.612;2023-04-09T05:25:04;11.30;69.50
42095;DHT22;27753;55.724;37.612;2023-04-09T05:27:30;11.00;66.40
42095;DHT22;27753;55.724;37.612;2023-04-09T05:29:56;11.00;66.20
42095;DHT22;27753;55.724;37.612;2023-04-09T05:32:22;11.00;66.30
42095;DHT22;27753;55.724;37.612;2023-04-09T05:34:48;10.90;66.30
42095;DHT22;27753;55.724;37.612;2023-04-09T05:37:14;10.90;66.50
42095;DHT22;27753;55.724;37.612;2023-04-09T05:39:41;10.80;66.30
42095;DHT22;27753;55.724;37.612;2023-04-09T05:42:07;10.80;66.50
42095;DHT22;27753;55.724;37.612;2023-04-09T05:44:33;10.80;66.30
42095;DHT22;27753;55.724;37.612;2023-04-09T05:47:00;10.90;66.50
42095;DHT22;27753;55.724;37.612;2023-04-09T05:49:26;11.00;66.30
42095;DHT22;27753;55.724;37.612;2023-04-09T05:51:53;11.00;65.70
42095;DHT22;27753;55.724;37.612;2023-04-09T05:54:19;11.10;65.50
42095;DHT22;27753;55.724;37.612;2023-04-09T05:56:45;11.20;65.80
42095;DHT22;27753;55.724;37.612;2023-04-09T05:59:13;11.30;65.30
42095;DHT22;27753;55.724;37.612;2023-04-09T06:01:39;11.50;65.60
42095;DHT22;27753;55.724;37.612;2023-04-09T06:04:08;11.70;66.10
42095;DHT22;27753;55.724;37.612;2023-04-09T06:06:37;11.80;63.00
42095;DHT22;27753;55.724;37.612;2023-04-09T06:09:03;11.90;62.50
42095;DHT22;27753;55.724;37.612;2023-04-09T06:11:30;11.70;62.30
42095;DHT22;27753;55.724;37.612;2023-04-09T06:13:56;11.50;62.80
42095;DHT22;27753;55.724;37.612;2023-04-09T06:16:23;11.50;63.40
42095;DHT22;27753;55.724;37.612;2023-04-09T06:18:49;11.50;63.20
42095;DHT22;27753;55.724;37.612;2023-04-09T06:21:18;11.60;63.30
42095;DHT22;27753;55.724;37.612;2023-04-09T06:23:44;11.80;63.00
42095;DHT22;27753;55.724;37.612;2023-04-09T06:26:10;12.00;62.90
42095;DHT22;27753;55.724;37.612;2023-04-09T06:28:36;12.30;62.10
42095;DHT22;27753;55.724;37.612;2023-04-09T06:31:03;13.10;61.70
42095;DHT22;27753;55.724;37.612;2023-04-09T06:33:29;14.00;59.20
42095;DHT22;27753;55.724;37.612;2023-04-09T06:35:59;15.00;57.40
42095;DHT22;27753;55.724;37.612;2023-04-09T06:43:20;18.60;70.80
42095;DHT22;27753;55.724;37.612;2023-04-09T06:48:12;17.90;71.40
42095;DHT22;27753;55.724;37.612;2023-04-09T06:50:38;17.90;71.80
42095;DHT22;27753;55.724;37.612;2023-04-09T06:53:05;18.30;71.00
42095;DHT22;27753;55.724;37.612;2023-04-09T06:55:31;18.70;48.40
42095;DHT22;27753;55.724;37.612;2023-04-09T07:00:23;20.50;45.00
42095;DHT22;27753;55.724;37.612;2023-04-09T07:02:52;21.00;44.00
42095;DHT22;27753;55.724;37.612;2023-04-09T07:05:18;21.10;42.80
42095;DHT22;27753;55.724;37.612;2023-04-09T07:07:44;20.70;43.10
42095;DHT22;27753;55.724;37.612;2023-04-09T07:10:10;20.70;43.10
42095;DHT22;27753;55.724;37.612;2023-04-09T07:12:36;20.70;42.80
42095;DHT22;27753;55.724;37.612;2023-04-09T07:15:04;20.10;42.70
42095;DHT22;27753;55.724;37.612;2023-04-09T07:17:31;19.10;43.90
42095;DHT22;27753;55.724;37.612;2023-04-09T07:19:57;17.90;45.70
42095;DHT22;27753;55.724;37.612;2023-04-09T07:22:24;17.20;47.30
42095;DHT22;27753;55.724;37.612;2023-04-09T07:24:53;17.10;47.70
42095;DHT22;27753;55.724;37.612;2023-04-09T07:29:46;16.50;48.30
42095;DHT22;27753;55.724;37.612;2023-04-09T07:32:12;16.30;49.00
42095;DHT22;27753;55.724;37.612;2023-04-09T07:34:39;16.10;49.50
42095;DHT22;27753;55.724;37.612;2023-04-09T07:37:05;15.70;50.10
42095;DHT22;27753;55.724;37.612;2023-04-09T07:39:31;15.70;50.50
42095;DHT22;27753;55.724;37.612;2023-04-09T07:42:01;15.90;50.40
42095;DHT22;27753;55.724;37.612;2023-04-09T07:44:27;16.30;49.90
42095;DHT22;27753;55.724;37.612;2023-04-09T07:46:54;16.60;49.60
42095;DHT22;27753;55.724;37.612;2023-04-09T07:49:20;16.90;48.70
42095;DHT22;27753;55.724;37.612;2023-04-09T07:51:46;17.10;48.40
42095;DHT22;27753;55.724;37.612;2023-04-09T07:54:12;17.60;48.30
42095;DHT22;27753;55.724;37.612;2023-04-09T07:56:38;18.50;47.10
42095;DHT22;27753;55.724;37.612;2023-04-09T07:59:04;19.00;45.70
42095;DHT22;27753;55.724;37.612;2023-04-09T08:01:30;19.00;44.40
42095;DHT22;27753;55.724;37.612;2023-04-09T08:03:59;18.60;44.40
42095;DHT22;27753;55.724;37.612;2023-04-09T08:06:25;18.50;44.90
42095;DHT22;27753;55.724;37.612;2023-04-09T08:08:52;18.20;45.00
42095;DHT22;27753;55.724;37.612;2023-04-09T08:11:18;18.80;44.50
42095;DHT22;27753;55.724;37.612;2023-04-09T08:13:55;19.40;43.30
42095;DHT22;27753;55.724;37.612;2023-04-09T08:16:33;19.20;42.90
42095;DHT22;27753;55.724;37.612;2023-04-09T08:19:09;19.30;42.90
42095;DHT22;27753;55.724;37.612;2023-04-09T08:24:24;21.20;41.10
42095;DHT22;27753;55.724;37.612;2023-04-09T08:26:50;22.50;39.50
42095;DHT22;27753;55.724;37.612;2023-04-09T08:29:25;23.20;38.30
42095;DHT22;27753;55.724;37.612;2023-04-09T08:34:21;23.80;35.40
42095;DHT22;27753;55.724;37.612;2023-04-09T08:36:47;22.50;37.40
42095;DHT22;27753;55.724;37.612;2023-04-09T08:39:15;22.20;38.70
42095;DHT22;27753;55.724;37.612;2023-04-09T08:41:45;23.10;38.10
42095;DHT22;27753;55.724;37.612;2023-04-09T08:44:12;23.60;36.50
42095;DHT22;27753;55.724;37.612;2023-04-09T08:46:39;23.70;36.20
42095;DHT22;27753;55.724;37.612;2023-04-09T08:49:08;23.90;36.30
42095;DHT22;27753;55.724;37.612;2023-04-09T08:51:36;25.30;36.50
42095;DHT22;27753;55.724;37.612;2023-04-09T08:56:29;26.30;33.50
42095;DHT22;27753;55.724;37.612;2023-04-09T08:58:56;26.80;33.80
42095;DHT22;27753;55.724;37.612;2023-04-09T09:01:27;27.50;32.90
42095;DHT22;27753;55.724;37.612;2023-04-09T09:04:06;26.70;32.50
42095;DHT22;27753;55.724;37.612;2023-04-09T09:09:16;28.20;33.30
42095;DHT22;27753;55.724;37.612;2023-04-09T09:11:49;28.70;32.60
42095;DHT22;27753;55.724;37.612;2023-04-09T09:14:18;28.30;32.70
42095;DHT22;27753;55.724;37.612;2023-04-09T09:17:04;26.70;31.70
42095;DHT22;27753;55.724;37.612;2023-04-09T09:19:33;25.00;33.30
42095;DHT22;27753;55.724;37.612;2023-04-09T09:22:06;24.10;34.40
42095;DHT22;27753;55.724;37.612;2023-04-09T09:24:50;23.30;35.40
42095;DHT22;27753;55.724;37.612;2023-04-09T09:27:39;22.90;36.40
42095;DHT22;27753;55.724;37.612;2023-04-09T09:30:08;22.60;36.50
42095;DHT22;27753;55.724;37.612;2023-04-09T09:32:46;23.30;36.60
42095;DHT22;27753;55.724;37.612;2023-04-09T09:35:12;24.80;34.90
42095;DHT22;27753;55.724;37.612;2023-04-09T09:37:39;24.70;34.20
42095;DHT22;27753;55.724;37.612;2023-04-09T09:40:05;24.20;34.50
42095;DHT22;27753;55.724;37.612;2023-04-09T09:42:32;24.30;35.50
42095;DHT22;27753;55.724;37.612;2023-04-09T09:44:58;25.40;34.10
42095;DHT22;27753;55.724;37.612;2023-04-09T09:47:25;25.50;34.60
42095;DHT22;27753;55.724;37.612;2023-04-09T09:49:54;24.60;34.10
42095;DHT22;27753;55.724;37.612;2023-04-09T09:52:28;24.10;34.90
42095;DHT22;27753;55.724;37.612;2023-04-09T09:54:56;24.00;35.00
42095;DHT22;27753;55.724;37.612;2023-04-09T09:57:26;23.10;35.50
42095;DHT22;27753;55.724;37.612;2023-04-09T09:59:57;22.80;36.70
42095;DHT22;27753;55.724;37.612;2023-04-09T10:02:27;23.80;35.70
42095;DHT22;27753;55.724;37.612;2023-04-09T10:04:59;25.00;34.60
42095;DHT22;27753;55.724;37.612;2023-04-09T10:07:33;26.10;33.80
42095;DHT22;27753;55.724;37.612;2023-04-09T10:10:00;26.40;32.70
42095;DHT22;27753;55.724;37.612;2023-04-09T10:12:42;26.00;33.80
42095;DHT22;27753;55.724;37.612;2023-04-09T10:15:10;27.20;33.00
42095;DHT22;27753;55.724;37.612;2023-04-09T10:17:36;27.10;32.00
42095;DHT22;27753;55.724;37.612;2023-04-09T10:20:14;27.60;32.20
42095;DHT22;27753;55.724;37.612;2023-04-09T10:22:46;28.80;31.60
42095;DHT22;27753;55.724;37.612;2023-04-09T10:25:15;29.00;30.40
42095;DHT22;27753;55.724;37.612;2023-04-09T10:27:42;27.70;30.40
42095;DHT22;27753;55.724;37.612;2023-04-09T10:30:39;25.60;31.20
42095;DHT22;27753;55.724;37.612;2023-04-09T10:33:16;23.30;33.90
42095;DHT22;27753;55.724;37.612;2023-04-09T10:35:46;21.10;37.10
42095;DHT22;27753;55.724;37.612;2023-04-09T10:38:14;20.30;38.50
42095;DHT22;27753;55.724;37.612;2023-04-09T10:40:52;19.70;39.10
42095;DHT22;27753;55.724;37.612;2023-04-09T10:43:23;19.10;39.90
42095;DHT22;27753;55.724;37.612;2023-04-09T10:50:53;18.50;40.50
42095;DHT22;27753;55.724;37.612;2023-04-09T10:53:23;18.20;42.00
42095;DHT22;27753;55.724;37.612;2023-04-09T10:55:56;17.80;42.90
42095;DHT22;27753;55.724;37.612;2023-04-09T10:58:26;17.70;43.30
42095;DHT22;27753;55.724;37.612;2023-04-09T11:01:00;17.60;43.10
42095;DHT22;27753;55.724;37.612;2023-04-09T11:03:28;17.10;43.60
42095;DHT22;27753;55.724;37.612;2023-04-09T11:06:03;16.80;44.30
42095;DHT22;27753;55.724;37.612;2023-04-09T11:08:52;17.00;45.00
42095;DHT22;27753;55.724;37.612;2023-04-09T11:11:25;17.30;44.50
42095;DHT22;27753;55.724;37.612;2023-04-09T11:13:58;17.50;44.10
42095;DHT22;27753;55.724;37.612;2023-04-09T11:16:52;17.40;44.20
42095;DHT22;27753;55.724;37.612;2023-04-09T11:19:20;17.50;44.00
42095;DHT22;27753;55.724;37.612;2023-04-09T11:21:49;17.60;43.80
42095;DHT22;27753;55.724;37.612;2023-04-09T11:24:18;17.80;43.50
42095;DHT22;27753;55.724;37.612;2023-04-09T11:26:45;18.00;43.50
42095;DHT22;27753;55.724;37.612;2023-04-09T11:29:14;18.10;42.90
42095;DHT22;27753;55.724;37.612;2023-04-09T11:31:44;17.90;43.30
42095;DHT22;27753;55.724;37.612;2023-04-09T11:34:10;17.70;43.10
42095;DHT22;27753;55.724;37.612;2023-04-09T11:36:40;17.60;43.40
42095;DHT22;27753;55.724;37.612;2023-04-09T11:39:06;17.50;43.50
42095;DHT22;27753;55.724;37.612;2023-04-09T11:41:36;17.50;43.40
42095;DHT22;27753;55.724;37.612;2023-04-09T11:44:08;17.50;43.70
42095;DHT22;27753;55.724;37.612;2023-04-09T11:46:38;17.50;43.80
42095;DHT22;27753;55.724;37.612;2023-04-09T11:49:04;17.50;43.90
42095;DHT22;27753;55.724;37.612;2023-04-09T11:51:30;17.40;44.10
42095;DHT22;27753;55.724;37.612;2023-04-09T11:54:06;17.30;44.00
42095;DHT22;27753;55.724;37.612;2023-04-09T11:56:34;17.20;44.00
42095;DHT22;27753;55.724;37.612;2023-04-09T11:59:02;16.90;43.90
42095;DHT22;27753;55.724;37.612;2023-04-09T12:01:32;16.70;44.30
42095;DHT22;27753;55.724;37.612;2023-04-09T12:03:59;16.60;44.30
42095;DHT22;27753;55.724;37.612;2023-04-09T12:06:25;16.50;44.10
42095;DHT22;27753;55.724;37.612;2023-04-09T12:08:58;16.50;44.20
42095;DHT22;27753;55.724;37.612;2023-04-09T12:11:29;16.40;44.60
42095;DHT22;27753;55.724;37.612;2023-04-09T12:14:04;16.50;44.70
42095;DHT22;27753;55.724;37.612;2023-04-09T12:16:32;16.60;45.10
42095;DHT22;27753;55.724;37.612;2023-04-09T12:19:02;16.40;44.50
42095;DHT22;27753;55.724;37.612;2023-04-09T12:21:50;16.20;44.80
42095;DHT22;27753;55.724;37.612;2023-04-09T12:24:19;16.10;45.10
42095;DHT22;27753;55.724;37.612;2023-04-09T12:26:46;16.10;45.20
42095;DHT22;27753;55.724;37.612;2023-04-09T12:29:18;16.00;45.10
42095;DHT22;27753;55.724;37.612;2023-04-09T12:31:44;16.10;45.20
42095;DHT22;27753;55.724;37.612;2023-04-09T12:34:11;16.00;45.30
42095;DHT22;27753;55.724;37.612;2023-04-09T12:36:38;16.20;45.50
42095;DHT22;27753;55.724;37.612;2023-04-09T12:39:07;16.30;45.20
42095;DHT22;27753;55.724;37.612;2023-04-09T12:41:33;16.40;45.10
42095;DHT22;27753;55.724;37.612;2023-04-09T12:43:59;16.40;44.90
42095;DHT22;27753;55.724;37.612;2023-04-09T12:46:25;16.50;45.10
42095;DHT22;27753;55.724;37.612;2023-04-09T12:48:52;16.60;45.30
42095;DHT22;27753;55.724;37.612;2023-04-09T12:51:18;16.70;44.50
42095;DHT22;27753;55.724;37.612;2023-04-09T12:53:45;16.40;44.50
42095;DHT22;27753;55.724;37.612;2023-04-09T12:56:11;16.20;45.00
42095;DHT22;27753;55.724;37.612;2023-04-09T12:58:36;16.30;45.10
42095;DHT22;27753;55.724;37.612;2023-04-09T13:01:03;16.40;45.20
42095;DHT22;27753;55.724;37.612;2023-04-09T13:03:29;16.60;44.60
42095;DHT22;27753;55.724;37.612;2023-04-09T13:05:55;16.70;44.50
42095;DHT22;27753;55.724;37.612;2023-04-09T13:08:22;16.60;44.20
42095;DHT22;27753;55.724;37.612;2023-04-09T13:10:48;16.40;44.50
42095;DHT22;27753;55.724;37.612;2023-04-09T13:13:13;16.20;44.90
42095;DHT22;27753;55.724;37.612;2023-04-09T13:15:40;16.20;45.00
42095;DHT22;27753;55.724;37.612;2023-04-09T13:18:13;16.20;44.70
42095;DHT22;27753;55.724;37.612;2023-04-09T13:20:38;16.00;45.00
42095;DHT22;27753;55.724;37.612;2023-04-09T13:23:05;16.00;45.30
42095;DHT22;27753;55.724;37.612;2023-04-09T13:25:31;16.00;45.50
42095;DHT22;27753;55.724;37.612;2023-04-09T13:27:57;16.00;45.40
42095;DHT22;27753;55.724;37.612;2023-04-09T13:30:23;16.00;45.30
42095;DHT22;27753;55.724;37.612;2023-04-09T13:32:48;16.00;45.30
42095;DHT22;27753;55.724;37.612;2023-04-09T13:35:14;16.10;45.20
42095;DHT22;27753;55.724;37.612;2023-04-09T13:37:41;16.10;45.10
42095;DHT22;27753;55.724;37.612;2023-04-09T13:40:07;16.10;45.00
42095;DHT22;27753;55.724;37.612;2023-04-09T13:42:36;16.00;44.90
42095;DHT22;27753;55.724;37.612;2023-04-09T13:45:03;16.00;45.00
42095;DHT22;27753;55.724;37.612;2023-04-09T13:47:29;15.90;45.10
42095;DHT22;27753;55.724;37.612;2023-04-09T13:49:55;15.90;45.30
42095;DHT22;27753;55.724;37.612;2023-04-09T13:52:21;15.80;45.50
42095;DHT22;27753;55.724;37.612;2023-04-09T13:54:47;15.80;46.30
42095;DHT22;27753;55.724;37.612;2023-04-09T13:59:41;15.50;47.20
42095;DHT22;27753;55.724;37.612;2023-04-09T14:02:07;15.30;48.30
42095;DHT22;27753;55.724;37.612;2023-04-09T14:04:33;15.30;48.60
42095;DHT22;27753;55.724;37.612;2023-04-09T14:06:59;15.30;48.60
42095;DHT22;27753;55.724;37.612;2023-04-09T14:09:25;15.30;48.50
42095;DHT22;27753;55.724;37.612;2023-04-09T14:11:51;15.20;48.70
42095;DHT22;27753;55.724;37.612;2023-04-09T14:14:18;15.20;48.80
42095;DHT22;27753;55.724;37.612;2023-04-09T14:16:45;15.20;48.50
42095;DHT22;27753;55.724;37.612;2023-04-09T14:19:11;15.10;49.20
42095;DHT22;27753;55.724;37.612;2023-04-09T14:21:38;15.10;49.60
42095;DHT22;27753;55.724;37.612;2023-04-09T14:24:04;15.00;49.80
42095;DHT22;27753;55.724;37.612;2023-04-09T14:26:30;14.90;50.60
42095;DHT22;27753;55.724;37.612;2023-04-09T14:28:56;14.90;50.10
42095;DHT22;27753;55.724;37.612;2023-04-09T14:31:22;14.90;50.20
42095;DHT22;27753;55.724;37.612;2023-04-09T14:33:48;14.90;50.20
42095;DHT22;27753;55.724;37.612;2023-04-09T14:36:14;14.90;50.30
42095;DHT22;27753;55.724;37.612;2023-04-09T14:38:40;14.90;50.40
42095;DHT22;27753;55.724;37.612;2023-04-09T14:41:06;14.80;50.50
42095;DHT22;27753;55.724;37.612;2023-04-09T14:43:32;14.80;50.40
42095;DHT22;27753;55.724;37.612;2023-04-09T14:45:58;14.90;50.30
42095;DHT22;27753;55.724;37.612;2023-04-09T14:48:24;14.80;50.30
42095;DHT22;27753;55.724;37.612;2023-04-09T14:50:50;14.80;50.10
42095;DHT22;27753;55.724;37.612;2023-04-09T14:53:16;14.80;50.30
42095;DHT22;27753;55.724;37.612;2023-04-09T14:55:42;14.80;50.30
42095;DHT22;27753;55.724;37.612;2023-04-09T14:58:08;14.80;50.20
42095;DHT22;27753;55.724;37.612;2023-04-09T15:00:34;14.80;50.20
42095;DHT22;27753;55.724;37.612;2023-04-09T15:03:01;14.80;50.20
42095;DHT22;27753;55.724;37.612;2023-04-09T15:05:28;14.80;50.50
42095;DHT22;27753;55.724;37.612;2023-04-09T15:07:54;14.70;50.50
42095;DHT22;27753;55.724;37.612;2023-04-09T15:10:20;14.70;50.80
42095;DHT22;27753;55.724;37.612;2023-04-09T15:12:46;14.70;50.80
42095;DHT22;27753;55.724;37.612;2023-04-09T15:15:12;14.70;50.90
42095;DHT22;27753;55.724;37.612;2023-04-09T15:17:39;14.70;50.90
42095;DHT22;27753;55.724;37.612;2023-04-09T15:20:06;14.70;50.60
42095;DHT22;27753;55.724;37.612;2023-04-09T15:22:32;14.60;50.50
42095;DHT22;27753;55.724;37.612;2023-04-09T15:24:58;14.60;50.70
42095;DHT22;27753;55.724;37.612;2023-04-09T15:27:24;14.60;50.90
42095;DHT22;27753;55.724;37.612;2023-04-09T15:29:50;14.50;50.70
42095;DHT22;27753;55.724;37.612;2023-04-09T15:32:16;14.50;50.80
42095;DHT22;27753;55.724;37.612;2023-04-09T15:34:42;14.50;50.90
42095;DHT22;27753;55.724;37.612;2023-04-09T15:37:09;14.50;50.90
42095;DHT22;27753;55.724;37.612;2023-04-09T15:39:35;14.50;51.00
42095;DHT22;27753;55.724;37.612;2023-04-09T15:42:01;14.40;50.90
42095;DHT22;27753;55.724;37.612;2023-04-09T15:44:27;14.40;50.90
42095;DHT22;27753;55.724;37.612;2023-04-09T15:46:52;14.40;51.00
42095;DHT22;27753;55.724;37.612;2023-04-09T15:49:19;14.30;51.00
42095;DHT22;27753;55.724;37.612;2023-04-09T15:51:45;14.30;50.60
42095;DHT22;27753;55.724;37.612;2023-04-09T15:54:11;14.30;50.70
42095;DHT22;27753;55.724;37.612;2023-04-09T15:56:37;14.30;50.90
42095;DHT22;27753;55.724;37.612;2023-04-09T15:59:05;14.30;50.90
42095;DHT22;27753;55.724;37.612;2023-04-09T16:03:58;14.30;50.50
42095;DHT22;27753;55.724;37.612;2023-04-09T16:06:24;14.20;51.00
42095;DHT22;27753;55.724;37.612;2023-04-09T16:08:50;14.20;51.00